GZT weather

Gaziantep International Airport
Gaziantep, Gaziantep Province, Turkey

Public forecast

Using degrees Celsius for public forecast. Weather courtesy of forecast.io.

METAR (pilot weather report)

Retrieved 2019/06/25 18:20 UTC (0 seconds ago):

LTAJ 251820Z 25004KT CAVOK 30/15 Q1011 NOSIG RMK RWY10 25005KT

TAF (pilot weather forecast)

Retrieved 2019/06/25 18:00 UTC (3 minutes ago):

TAF LTAJ 251640Z 2518/2618 VRB02KT CAVOK BECMG 2609/2612 SCT040 TEMPO 2612/2615 25012KT BECMG 2615/2617 CAVOK